sensor_id;sensor_type;location;lat;lon;timestamp;P1;durP1;ratioP1;P2;durP2;ratioP2
39970;SDS011;35425;51.142;17.178;2022-11-18T00:02:02;2.33;;;2.13;;
39970;SDS011;35425;51.142;17.178;2022-11-18T00:04:29;2.50;;;2.30;;
39970;SDS011;35425;51.142;17.178;2022-11-18T00:06:55;2.30;;;2.08;;
39970;SDS011;35425;51.142;17.178;2022-11-18T00:09:22;2.33;;;2.05;;
39970;SDS011;35425;51.142;17.178;2022-11-18T00:11:48;2.40;;;2.20;;
39970;SDS011;35425;51.142;17.178;2022-11-18T00:14:33;2.28;;;2.08;;
39970;SDS011;35425;51.142;17.178;2022-11-18T00:17:01;2.30;;;2.10;;
39970;SDS011;35425;51.142;17.178;2022-11-18T00:19:38;2.35;;;2.15;;
39970;SDS011;35425;51.142;17.178;2022-11-18T00:22:05;2.40;;;2.00;;
39970;SDS011;35425;51.142;17.178;2022-11-18T00:24:32;2.17;;;1.98;;
39970;SDS011;35425;51.142;17.178;2022-11-18T00:26:58;2.83;;;2.33;;
39970;SDS011;35425;51.142;17.178;2022-11-18T00:29:25;2.92;;;2.53;;
39970;SDS011;35425;51.142;17.178;2022-11-18T00:31:54;2.65;;;2.45;;
39970;SDS011;35425;51.142;17.178;2022-11-18T00:34:20;2.58;;;2.38;;
39970;SDS011;35425;51.142;17.178;2022-11-18T00:36:47;3.08;;;2.45;;
39970;SDS011;35425;51.142;17.178;2022-11-18T00:39:14;2.50;;;2.25;;
39970;SDS011;35425;51.142;17.178;2022-11-18T00:41:42;2.40;;;2.20;;
39970;SDS011;35425;51.142;17.178;2022-11-18T00:44:27;2.83;;;2.63;;
39970;SDS011;35425;51.142;17.178;2022-11-18T00:46:53;2.72;;;2.53;;
39970;SDS011;35425;51.142;17.178;2022-11-18T00:49:20;2.58;;;2.38;;
39970;SDS011;35425;51.142;17.178;2022-11-18T00:51:46;2.58;;;2.38;;
39970;SDS011;35425;51.142;17.178;2022-11-18T00:54:13;2.60;;;2.40;;
39970;SDS011;35425;51.142;17.178;2022-11-18T00:56:39;2.58;;;2.38;;
39970;SDS011;35425;51.142;17.178;2022-11-18T00:59:06;2.85;;;2.60;;
39970;SDS011;35425;51.142;17.178;2022-11-18T01:01:32;2.88;;;2.58;;
39970;SDS011;35425;51.142;17.178;2022-11-18T01:03:59;2.58;;;2.38;;
39970;SDS011;35425;51.142;17.178;2022-11-18T01:06:25;2.67;;;2.47;;
39970;SDS011;35425;51.142;17.178;2022-11-18T01:08:52;2.83;;;2.63;;
39970;SDS011;35425;51.142;17.178;2022-11-18T01:11:18;2.80;;;2.60;;
39970;SDS011;35425;51.142;17.178;2022-11-18T01:14:04;2.83;;;2.63;;
39970;SDS011;35425;51.142;17.178;2022-11-18T01:16:30;3.05;;;2.75;;
39970;SDS011;35425;51.142;17.178;2022-11-18T01:18:57;3.03;;;2.63;;
39970;SDS011;35425;51.142;17.178;2022-11-18T01:21:23;3.08;;;2.63;;
39970;SDS011;35425;51.142;17.178;2022-11-18T01:23:50;3.33;;;2.90;;
39970;SDS011;35425;51.142;17.178;2022-11-18T01:26:16;3.17;;;2.88;;
39970;SDS011;35425;51.142;17.178;2022-11-18T01:28:43;3.05;;;2.85;;
39970;SDS011;35425;51.142;17.178;2022-11-18T01:31:10;2.95;;;2.70;;
39970;SDS011;35425;51.142;17.178;2022-11-18T01:33:37;3.30;;;3.00;;
39970;SDS011;35425;51.142;17.178;2022-11-18T01:36:03;3.20;;;2.90;;
39970;SDS011;35425;51.142;17.178;2022-11-18T01:38:30;2.95;;;2.65;;
39970;SDS011;35425;51.142;17.178;2022-11-18T01:40:56;3.10;;;2.80;;
39970;SDS011;35425;51.142;17.178;2022-11-18T01:43:23;3.08;;;2.78;;
39970;SDS011;35425;51.142;17.178;2022-11-18T01:45:50;3.15;;;2.85;;
39970;SDS011;35425;51.142;17.178;2022-11-18T01:48:24;2.97;;;2.67;;
39970;SDS011;35425;51.142;17.178;2022-11-18T01:50:53;3.08;;;2.78;;
39970;SDS011;35425;51.142;17.178;2022-11-18T01:53:22;3.58;;;2.80;;
39970;SDS011;35425;51.142;17.178;2022-11-18T01:55:50;3.20;;;3.00;;
39970;SDS011;35425;51.142;17.178;2022-11-18T01:58:19;3.13;;;2.90;;
39970;SDS011;35425;51.142;17.178;2022-11-18T02:00:47;3.50;;;3.20;;
39970;SDS011;35425;51.142;17.178;2022-11-18T02:03:13;2.90;;;2.60;;
39970;SDS011;35425;51.142;17.178;2022-11-18T02:05:40;2.83;;;2.63;;
39970;SDS011;35425;51.142;17.178;2022-11-18T02:08:07;3.47;;;2.83;;
39970;SDS011;35425;51.142;17.178;2022-11-18T02:10:34;3.05;;;2.85;;
39970;SDS011;35425;51.142;17.178;2022-11-18T02:13:01;3.20;;;2.90;;
39970;SDS011;35425;51.142;17.178;2022-11-18T02:18:00;2.85;;;2.50;;
39970;SDS011;35425;51.142;17.178;2022-11-18T02:20:33;3.05;;;2.75;;
39970;SDS011;35425;51.142;17.178;2022-11-18T02:31:25;2.65;;;2.40;;
39970;SDS011;35425;51.142;17.178;2022-11-18T02:36:21;3.45;;;3.10;;
39970;SDS011;35425;51.142;17.178;2022-11-18T02:38:52;2.72;;;2.50;;
39970;SDS011;35425;51.142;17.178;2022-11-18T02:41:24;3.42;;;2.83;;
39970;SDS011;35425;51.142;17.178;2022-11-18T02:43:52;2.70;;;2.50;;
39970;SDS011;35425;51.142;17.178;2022-11-18T02:46:25;2.80;;;2.60;;
39970;SDS011;35425;51.142;17.178;2022-11-18T02:48:53;2.63;;;2.42;;
39970;SDS011;35425;51.142;17.178;2022-11-18T02:51:22;3.10;;;2.83;;
39970;SDS011;35425;51.142;17.178;2022-11-18T02:53:50;3.40;;;3.10;;
39970;SDS011;35425;51.142;17.178;2022-11-18T02:56:17;2.92;;;2.63;;
39970;SDS011;35425;51.142;17.178;2022-11-18T02:58:45;2.90;;;2.70;;
39970;SDS011;35425;51.142;17.178;2022-11-18T03:01:19;2.72;;;2.53;;
39970;SDS011;35425;51.142;17.178;2022-11-18T03:03:46;2.60;;;2.40;;
39970;SDS011;35425;51.142;17.178;2022-11-18T03:09:30;3.08;;;2.78;;
39970;SDS011;35425;51.142;17.178;2022-11-18T03:14:35;2.67;;;2.47;;
39970;SDS011;35425;51.142;17.178;2022-11-18T03:17:09;3.03;;;2.80;;
39970;SDS011;35425;51.142;17.178;2022-11-18T03:22:25;2.85;;;2.50;;
39970;SDS011;35425;51.142;17.178;2022-11-18T03:24:55;2.80;;;2.60;;
39970;SDS011;35425;51.142;17.178;2022-11-18T03:27:28;2.50;;;2.30;;
39970;SDS011;35425;51.142;17.178;2022-11-18T03:29:58;2.70;;;2.50;;
39970;SDS011;35425;51.142;17.178;2022-11-18T03:32:26;3.15;;;2.85;;
39970;SDS011;35425;51.142;17.178;2022-11-18T03:34:58;3.20;;;2.90;;
39970;SDS011;35425;51.142;17.178;2022-11-18T03:37:26;3.13;;;2.75;;
39970;SDS011;35425;51.142;17.178;2022-11-18T03:39:55;3.25;;;2.88;;
39970;SDS011;35425;51.142;17.178;2022-11-18T03:42:25;3.10;;;2.90;;
39970;SDS011;35425;51.142;17.178;2022-11-18T03:44:55;3.38;;;3.08;;
39970;SDS011;35425;51.142;17.178;2022-11-18T03:47:33;3.80;;;3.42;;
39970;SDS011;35425;51.142;17.178;2022-11-18T03:50:06;3.58;;;3.28;;
39970;SDS011;35425;51.142;17.178;2022-11-18T03:52:34;4.03;;;3.60;;
39970;SDS011;35425;51.142;17.178;2022-11-18T03:55:04;3.60;;;3.30;;
39970;SDS011;35425;51.142;17.178;2022-11-18T04:00:10;4.25;;;3.90;;
39970;SDS011;35425;51.142;17.178;2022-11-18T04:02:38;3.83;;;3.47;;
39970;SDS011;35425;51.142;17.178;2022-11-18T04:05:05;4.32;;;4.00;;
39970;SDS011;35425;51.142;17.178;2022-11-18T04:12:46;4.75;;;4.35;;
39970;SDS011;35425;51.142;17.178;2022-11-18T04:15:14;4.57;;;4.18;;
39970;SDS011;35425;51.142;17.178;2022-11-18T04:17:41;5.10;;;4.60;;
39970;SDS011;35425;51.142;17.178;2022-11-18T04:20:12;4.65;;;4.25;;
39970;SDS011;35425;51.142;17.178;2022-11-18T04:22:39;5.45;;;4.95;;
39970;SDS011;35425;51.142;17.178;2022-11-18T04:25:05;5.00;;;4.60;;
39970;SDS011;35425;51.142;17.178;2022-11-18T04:27:32;5.43;;;4.93;;
39970;SDS011;35425;51.142;17.178;2022-11-18T04:29:58;6.10;;;5.30;;
39970;SDS011;35425;51.142;17.178;2022-11-18T04:32:25;5.07;;;4.57;;
39970;SDS011;35425;51.142;17.178;2022-11-18T04:34:51;5.10;;;4.68;;
39970;SDS011;35425;51.142;17.178;2022-11-18T04:37:18;5.72;;;5.15;;
39970;SDS011;35425;51.142;17.178;2022-11-18T04:39:44;5.22;;;4.72;;
39970;SDS011;35425;51.142;17.178;2022-11-18T04:42:11;5.32;;;4.82;;
39970;SDS011;35425;51.142;17.178;2022-11-18T04:44:37;5.53;;;5.03;;
39970;SDS011;35425;51.142;17.178;2022-11-18T04:47:04;6.35;;;5.18;;
39970;SDS011;35425;51.142;17.178;2022-11-18T04:49:31;6.38;;;5.78;;
39970;SDS011;35425;51.142;17.178;2022-11-18T04:51:58;6.55;;;5.95;;
39970;SDS011;35425;51.142;17.178;2022-11-18T04:54:25;6.63;;;6.03;;
39970;SDS011;35425;51.142;17.178;2022-11-18T04:56:52;6.40;;;5.78;;
39970;SDS011;35425;51.142;17.178;2022-11-18T04:59:20;6.55;;;5.88;;
39970;SDS011;35425;51.142;17.178;2022-11-18T05:01:47;6.45;;;5.85;;
39970;SDS011;35425;51.142;17.178;2022-11-18T05:04:15;6.53;;;5.75;;
39970;SDS011;35425;51.142;17.178;2022-11-18T05:06:41;7.70;;;6.60;;
39970;SDS011;35425;51.142;17.178;2022-11-18T05:09:08;6.75;;;6.07;;
39970;SDS011;35425;51.142;17.178;2022-11-18T05:11:35;5.97;;;5.30;;
39970;SDS011;35425;51.142;17.178;2022-11-18T05:14:20;7.00;;;6.30;;
39970;SDS011;35425;51.142;17.178;2022-11-18T05:16:47;6.63;;;6.03;;
39970;SDS011;35425;51.142;17.178;2022-11-18T05:19:13;6.63;;;5.93;;
39970;SDS011;35425;51.142;17.178;2022-11-18T05:21:40;5.65;;;5.15;;
39970;SDS011;35425;51.142;17.178;2022-11-18T05:24:06;5.88;;;5.38;;
39970;SDS011;35425;51.142;17.178;2022-11-18T05:26:33;6.03;;;5.50;;
39970;SDS011;35425;51.142;17.178;2022-11-18T05:28:59;6.63;;;6.03;;
39970;SDS011;35425;51.142;17.178;2022-11-18T05:31:26;6.35;;;5.75;;
39970;SDS011;35425;51.142;17.178;2022-11-18T05:33:52;6.07;;;5.47;;
39970;SDS011;35425;51.142;17.178;2022-11-18T05:36:19;6.47;;;5.88;;
39970;SDS011;35425;51.142;17.178;2022-11-18T05:38:46;6.60;;;5.88;;
39970;SDS011;35425;51.142;17.178;2022-11-18T05:41:12;6.38;;;5.70;;
39970;SDS011;35425;51.142;17.178;2022-11-18T05:43:59;6.32;;;5.72;;
39970;SDS011;35425;51.142;17.178;2022-11-18T05:46:25;6.22;;;5.63;;
39970;SDS011;35425;51.142;17.178;2022-11-18T05:48:52;6.43;;;5.82;;
39970;SDS011;35425;51.142;17.178;2022-11-18T05:51:19;6.60;;;5.90;;
39970;SDS011;35425;51.142;17.178;2022-11-18T05:53:46;6.70;;;6.10;;
39970;SDS011;35425;51.142;17.178;2022-11-18T05:56:28;6.25;;;5.65;;
39970;SDS011;35425;51.142;17.178;2022-11-18T05:58:56;6.70;;;6.10;;
39970;SDS011;35425;51.142;17.178;2022-11-18T06:01:24;6.38;;;5.78;;
39970;SDS011;35425;51.142;17.178;2022-11-18T06:03:53;6.85;;;6.15;;
39970;SDS011;35425;51.142;17.178;2022-11-18T06:06:20;6.13;;;5.40;;
39970;SDS011;35425;51.142;17.178;2022-11-18T06:08:59;5.95;;;5.40;;
39970;SDS011;35425;51.142;17.178;2022-11-18T06:11:26;7.10;;;6.40;;
39970;SDS011;35425;51.142;17.178;2022-11-18T06:13:58;6.35;;;5.75;;
39970;SDS011;35425;51.142;17.178;2022-11-18T06:16:27;6.82;;;6.00;;
39970;SDS011;35425;51.142;17.178;2022-11-18T06:18:54;5.97;;;5.38;;
39970;SDS011;35425;51.142;17.178;2022-11-18T06:21:20;6.38;;;5.78;;
39970;SDS011;35425;51.142;17.178;2022-11-18T06:23:47;6.50;;;5.90;;
39970;SDS011;35425;51.142;17.178;2022-11-18T06:26:14;6.03;;;5.47;;
39970;SDS011;35425;51.142;17.178;2022-11-18T06:28:42;6.00;;;5.40;;
39970;SDS011;35425;51.142;17.178;2022-11-18T06:31:08;6.70;;;6.00;;
39970;SDS011;35425;51.142;17.178;2022-11-18T06:33:35;6.20;;;5.65;;
39970;SDS011;35425;51.142;17.178;2022-11-18T06:36:01;6.07;;;5.47;;
39970;SDS011;35425;51.142;17.178;2022-11-18T06:38:28;6.78;;;6.18;;
39970;SDS011;35425;51.142;17.178;2022-11-18T06:41:01;6.72;;;6.13;;
39970;SDS011;35425;51.142;17.178;2022-11-18T06:43:27;6.63;;;6.03;;
39970;SDS011;35425;51.142;17.178;2022-11-18T06:46:13;7.63;;;6.93;;
39970;SDS011;35425;51.142;17.178;2022-11-18T06:48:59;7.07;;;6.47;;
39970;SDS011;35425;51.142;17.178;2022-11-18T06:51:26;8.18;;;7.47;;
39970;SDS011;35425;51.142;17.178;2022-11-18T06:53:53;8.00;;;7.30;;
39970;SDS011;35425;51.142;17.178;2022-11-18T06:56:19;8.20;;;7.50;;
39970;SDS011;35425;51.142;17.178;2022-11-18T06:58:46;7.97;;;7.20;;
39970;SDS011;35425;51.142;17.178;2022-11-18T07:01:14;7.82;;;7.13;;
39970;SDS011;35425;51.142;17.178;2022-11-18T07:03:41;8.73;;;7.93;;
39970;SDS011;35425;51.142;17.178;2022-11-18T07:06:09;8.18;;;7.38;;
39970;SDS011;35425;51.142;17.178;2022-11-18T07:08:36;7.75;;;7.05;;
39970;SDS011;35425;51.142;17.178;2022-11-18T07:11:04;7.75;;;7.05;;
39970;SDS011;35425;51.142;17.178;2022-11-18T07:13:31;7.90;;;7.18;;
39970;SDS011;35425;51.142;17.178;2022-11-18T07:16:01;7.80;;;7.10;;
39970;SDS011;35425;51.142;17.178;2022-11-18T07:18:30;8.38;;;7.57;;
39970;SDS011;35425;51.142;17.178;2022-11-18T07:20:56;7.95;;;7.25;;
39970;SDS011;35425;51.142;17.178;2022-11-18T07:23:26;7.85;;;7.15;;
39970;SDS011;35425;51.142;17.178;2022-11-18T07:25:53;8.20;;;7.50;;
39970;SDS011;35425;51.142;17.178;2022-11-18T07:28:20;7.50;;;6.75;;
39970;SDS011;35425;51.142;17.178;2022-11-18T07:30:47;8.05;;;7.25;;
39970;SDS011;35425;51.142;17.178;2022-11-18T07:33:13;7.97;;;7.28;;
39970;SDS011;35425;51.142;17.178;2022-11-18T07:35:40;7.57;;;6.88;;
39970;SDS011;35425;51.142;17.178;2022-11-18T07:38:06;7.85;;;7.10;;
39970;SDS011;35425;51.142;17.178;2022-11-18T07:40:33;7.35;;;6.75;;
39970;SDS011;35425;51.142;17.178;2022-11-18T07:42:59;7.70;;;6.93;;
39970;SDS011;35425;51.142;17.178;2022-11-18T07:45:26;7.85;;;7.15;;
39970;SDS011;35425;51.142;17.178;2022-11-18T07:47:52;7.68;;;6.97;;
39970;SDS011;35425;51.142;17.178;2022-11-18T07:50:18;7.00;;;6.40;;
39970;SDS011;35425;51.142;17.178;2022-11-18T07:52:45;9.18;;;8.27;;
39970;SDS011;35425;51.142;17.178;2022-11-18T07:55:11;8.80;;;7.90;;
39970;SDS011;35425;51.142;17.178;2022-11-18T07:57:38;8.57;;;7.78;;
39970;SDS011;35425;51.142;17.178;2022-11-18T08:00:04;8.68;;;7.88;;
39970;SDS011;35425;51.142;17.178;2022-11-18T08:02:31;8.70;;;7.80;;
39970;SDS011;35425;51.142;17.178;2022-11-18T08:04:57;7.72;;;7.03;;
39970;SDS011;35425;51.142;17.178;2022-11-18T08:07:24;8.05;;;7.35;;
39970;SDS011;35425;51.142;17.178;2022-11-18T08:09:50;8.43;;;7.57;;
39970;SDS011;35425;51.142;17.178;2022-11-18T08:12:17;8.38;;;7.68;;
39970;SDS011;35425;51.142;17.178;2022-11-18T08:14:43;8.02;;;7.32;;
39970;SDS011;35425;51.142;17.178;2022-11-18T08:17:10;8.20;;;7.50;;
39970;SDS011;35425;51.142;17.178;2022-11-18T08:19:36;8.80;;;8.00;;
39970;SDS011;35425;51.142;17.178;2022-11-18T08:22:02;8.35;;;7.55;;
39970;SDS011;35425;51.142;17.178;2022-11-18T08:24:29;9.02;;;8.23;;
39970;SDS011;35425;51.142;17.178;2022-11-18T08:26:55;9.60;;;8.70;;
39970;SDS011;35425;51.142;17.178;2022-11-18T08:29:22;8.93;;;8.13;;
39970;SDS011;35425;51.142;17.178;2022-11-18T08:31:50;8.50;;;7.75;;
39970;SDS011;35425;51.142;17.178;2022-11-18T08:34:17;8.52;;;7.80;;
39970;SDS011;35425;51.142;17.178;2022-11-18T08:36:43;9.57;;;8.77;;
39970;SDS011;35425;51.142;17.178;2022-11-18T08:39:10;9.13;;;8.32;;
39970;SDS011;35425;51.142;17.178;2022-11-18T08:41:41;9.70;;;8.80;;
39970;SDS011;35425;51.142;17.178;2022-11-18T08:44:11;9.20;;;8.40;;
39970;SDS011;35425;51.142;17.178;2022-11-18T08:46:39;10.15;;;9.25;;
39970;SDS011;35425;51.142;17.178;2022-11-18T08:49:05;9.10;;;8.30;;
39970;SDS011;35425;51.142;17.178;2022-11-18T08:51:32;9.38;;;8.57;;
39970;SDS011;35425;51.142;17.178;2022-11-18T08:53:58;9.35;;;8.45;;
39970;SDS011;35425;51.142;17.178;2022-11-18T08:56:25;9.48;;;8.57;;
39970;SDS011;35425;51.142;17.178;2022-11-18T08:58:51;9.98;;;9.07;;
39970;SDS011;35425;51.142;17.178;2022-11-18T09:01:18;8.93;;;8.02;;
39970;SDS011;35425;51.142;17.178;2022-11-18T09:03:45;9.15;;;8.25;;
39970;SDS011;35425;51.142;17.178;2022-11-18T09:06:18;9.57;;;8.77;;
39970;SDS011;35425;51.142;17.178;2022-11-18T09:08:45;9.38;;;8.57;;
39970;SDS011;35425;51.142;17.178;2022-11-18T09:11:13;10.10;;;9.10;;
39970;SDS011;35425;51.142;17.178;2022-11-18T09:13:40;10.07;;;9.23;;
39970;SDS011;35425;51.142;17.178;2022-11-18T09:16:27;9.68;;;8.68;;
39970;SDS011;35425;51.142;17.178;2022-11-18T09:18:55;9.27;;;8.48;;
39970;SDS011;35425;51.142;17.178;2022-11-18T09:21:21;9.95;;;9.05;;
39970;SDS011;35425;51.142;17.178;2022-11-18T09:23:48;9.40;;;8.60;;
39970;SDS011;35425;51.142;17.178;2022-11-18T09:26:15;10.07;;;9.18;;
39970;SDS011;35425;51.142;17.178;2022-11-18T09:28:42;9.23;;;8.43;;
39970;SDS011;35425;51.142;17.178;2022-11-18T09:31:09;9.60;;;8.80;;
39970;SDS011;35425;51.142;17.178;2022-11-18T09:33:37;10.10;;;9.20;;
39970;SDS011;35425;51.142;17.178;2022-11-18T09:36:05;9.82;;;8.93;;
39970;SDS011;35425;51.142;17.178;2022-11-18T09:38:31;9.40;;;8.60;;
39970;SDS011;35425;51.142;17.178;2022-11-18T09:41:03;9.30;;;8.40;;
39970;SDS011;35425;51.142;17.178;2022-11-18T09:46:07;9.80;;;8.93;;
39970;SDS011;35425;51.142;17.178;2022-11-18T09:51:21;8.88;;;8.18;;
39970;SDS011;35425;51.142;17.178;2022-11-18T09:53:51;8.60;;;7.78;;
39970;SDS011;35425;51.142;17.178;2022-11-18T09:56:17;9.10;;;8.30;;
39970;SDS011;35425;51.142;17.178;2022-11-18T09:58:45;7.95;;;7.18;;
39970;SDS011;35425;51.142;17.178;2022-11-18T10:01:12;8.40;;;7.70;;
39970;SDS011;35425;51.142;17.178;2022-11-18T10:03:39;7.22;;;6.63;;
39970;SDS011;35425;51.142;17.178;2022-11-18T10:06:15;7.95;;;7.25;;
39970;SDS011;35425;51.142;17.178;2022-11-18T10:11:25;7.90;;;7.20;;
39970;SDS011;35425;51.142;17.178;2022-11-18T10:19:15;7.85;;;7.15;;
39970;SDS011;35425;51.142;17.178;2022-11-18T10:24:16;7.90;;;7.20;;
39970;SDS011;35425;51.142;17.178;2022-11-18T10:26:44;7.10;;;6.50;;
39970;SDS011;35425;51.142;17.178;2022-11-18T10:29:11;6.72;;;6.13;;
39970;SDS011;35425;51.142;17.178;2022-11-18T10:34:29;7.70;;;7.10;;
39970;SDS011;35425;51.142;17.178;2022-11-18T10:37:00;7.90;;;7.20;;
39970;SDS011;35425;51.142;17.178;2022-11-18T10:39:27;7.53;;;6.88;;
39970;SDS011;35425;51.142;17.178;2022-11-18T10:41:59;7.25;;;6.65;;
39970;SDS011;35425;51.142;17.178;2022-11-18T10:47:03;8.23;;;7.50;;
39970;SDS011;35425;51.142;17.178;2022-11-18T10:49:40;6.93;;;6.32;;
39970;SDS011;35425;51.142;17.178;2022-11-18T10:52:15;7.25;;;6.65;;
39970;SDS011;35425;51.142;17.178;2022-11-18T10:54:42;7.32;;;6.65;;
39970;SDS011;35425;51.142;17.178;2022-11-18T10:59:45;7.80;;;7.10;;
39970;SDS011;35425;51.142;17.178;2022-11-18T11:02:14;7.75;;;7.05;;
39970;SDS011;35425;51.142;17.178;2022-11-18T11:04:41;7.40;;;6.80;;
39970;SDS011;35425;51.142;17.178;2022-11-18T11:12:27;7.80;;;7.03;;
39970;SDS011;35425;51.142;17.178;2022-11-18T11:14:56;7.82;;;7.03;;
39970;SDS011;35425;51.142;17.178;2022-11-18T11:22:18;7.40;;;6.70;;
39970;SDS011;35425;51.142;17.178;2022-11-18T11:24:45;7.45;;;6.75;;
39970;SDS011;35425;51.142;17.178;2022-11-18T11:40:31;8.80;;;8.00;;
39970;SDS011;35425;51.142;17.178;2022-11-18T11:46:06;8.50;;;7.63;;
39970;SDS011;35425;51.142;17.178;2022-11-18T11:56:52;8.85;;;8.05;;
39970;SDS011;35425;51.142;17.178;2022-11-18T11:59:38;8.43;;;7.68;;
39970;SDS011;35425;51.142;17.178;2022-11-18T12:02:25;9.02;;;8.15;;
39970;SDS011;35425;51.142;17.178;2022-11-18T12:05:17;9.45;;;8.50;;
39970;SDS011;35425;51.142;17.178;2022-11-18T12:07:46;10.10;;;9.10;;
39970;SDS011;35425;51.142;17.178;2022-11-18T12:10:22;9.18;;;8.27;;
39970;SDS011;35425;51.142;17.178;2022-11-18T12:20:39;10.52;;;9.43;;
39970;SDS011;35425;51.142;17.178;2022-11-18T12:23:10;8.98;;;8.10;;
39970;SDS011;35425;51.142;17.178;2022-11-18T12:25:50;9.25;;;8.38;;
39970;SDS011;35425;51.142;17.178;2022-11-18T12:30:49;10.52;;;9.43;;
39970;SDS011;35425;51.142;17.178;2022-11-18T12:33:16;9.98;;;8.98;;
39970;SDS011;35425;51.142;17.178;2022-11-18T12:35:46;9.85;;;8.95;;
39970;SDS011;35425;51.142;17.178;2022-11-18T12:38:26;10.55;;;9.55;;
39970;SDS011;35425;51.142;17.178;2022-11-18T12:40:53;10.30;;;9.23;;
39970;SDS011;35425;51.142;17.178;2022-11-18T12:48:52;9.30;;;8.43;;
39970;SDS011;35425;51.142;17.178;2022-11-18T12:53:50;8.85;;;8.05;;
39970;SDS011;35425;51.142;17.178;2022-11-18T12:58:44;8.70;;;7.82;;
39970;SDS011;35425;51.142;17.178;2022-11-18T13:01:11;8.07;;;7.38;;
39970;SDS011;35425;51.142;17.178;2022-11-18T13:03:38;7.70;;;7.00;;
39970;SDS011;35425;51.142;17.178;2022-11-18T13:06:05;7.15;;;6.53;;
39970;SDS011;35425;51.142;17.178;2022-11-18T13:08:32;7.72;;;7.00;;
39970;SDS011;35425;51.142;17.178;2022-11-18T13:11:06;7.28;;;6.57;;
39970;SDS011;35425;51.142;17.178;2022-11-18T13:13:51;7.80;;;5.90;;
39970;SDS011;35425;51.142;17.178;2022-11-18T13:16:38;7.32;;;6.63;;
39970;SDS011;35425;51.142;17.178;2022-11-18T13:19:23;6.32;;;5.72;;
39970;SDS011;35425;51.142;17.178;2022-11-18T13:21:53;6.05;;;5.53;;
39970;SDS011;35425;51.142;17.178;2022-11-18T13:24:42;6.40;;;5.80;;
39970;SDS011;35425;51.142;17.178;2022-11-18T13:27:09;6.05;;;5.55;;
39970;SDS011;35425;51.142;17.178;2022-11-18T13:29:45;6.00;;;5.40;;
39970;SDS011;35425;51.142;17.178;2022-11-18T13:32:20;5.38;;;4.88;;
39970;SDS011;35425;51.142;17.178;2022-11-18T13:34:48;4.88;;;4.47;;
39970;SDS011;35425;51.142;17.178;2022-11-18T13:37:22;5.03;;;4.43;;
39970;SDS011;35425;51.142;17.178;2022-11-18T13:39:49;4.68;;;4.28;;
39970;SDS011;35425;51.142;17.178;2022-11-18T13:42:20;4.10;;;3.70;;
39970;SDS011;35425;51.142;17.178;2022-11-18T13:44:54;3.60;;;3.30;;
39970;SDS011;35425;51.142;17.178;2022-11-18T13:47:23;3.70;;;3.40;;
39970;SDS011;35425;51.142;17.178;2022-11-18T13:54:58;3.40;;;3.10;;
39970;SDS011;35425;51.142;17.178;2022-11-18T13:57:26;3.33;;;3.03;;
39970;SDS011;35425;51.142;17.178;2022-11-18T13:59:54;3.25;;;2.95;;
39970;SDS011;35425;51.142;17.178;2022-11-18T14:02:21;3.17;;;2.88;;
39970;SDS011;35425;51.142;17.178;2022-11-18T14:04:50;3.17;;;2.80;;
39970;SDS011;35425;51.142;17.178;2022-11-18T14:14:43;2.97;;;2.35;;
39970;SDS011;35425;51.142;17.178;2022-11-18T14:17:17;2.72;;;2.50;;
39970;SDS011;35425;51.142;17.178;2022-11-18T14:19:45;3.35;;;2.60;;
39970;SDS011;35425;51.142;17.178;2022-11-18T14:22:13;2.70;;;2.50;;
39970;SDS011;35425;51.142;17.178;2022-11-18T14:24:40;2.08;;;1.90;;
39970;SDS011;35425;51.142;17.178;2022-11-18T14:29:52;2.40;;;2.03;;
39970;SDS011;35425;51.142;17.178;2022-11-18T14:32:19;2.97;;;2.67;;
39970;SDS011;35425;51.142;17.178;2022-11-18T14:34:55;2.50;;;2.30;;
39970;SDS011;35425;51.142;17.178;2022-11-18T14:37:22;2.30;;;2.00;;
39970;SDS011;35425;51.142;17.178;2022-11-18T14:39:55;2.10;;;1.95;;
39970;SDS011;35425;51.142;17.178;2022-11-18T14:42:22;2.33;;;1.85;;
39970;SDS011;35425;51.142;17.178;2022-11-18T14:44:49;2.75;;;2.20;;
39970;SDS011;35425;51.142;17.178;2022-11-18T14:47:25;2.20;;;2.00;;
39970;SDS011;35425;51.142;17.178;2022-11-18T14:49:52;1.95;;;1.83;;
39970;SDS011;35425;51.142;17.178;2022-11-18T14:52:18;2.00;;;1.80;;
39970;SDS011;35425;51.142;17.178;2022-11-18T14:54:45;2.38;;;2.13;;
39970;SDS011;35425;51.142;17.178;2022-11-18T14:57:13;2.20;;;2.00;;
39970;SDS011;35425;51.142;17.178;2022-11-18T14:59:40;1.67;;;1.55;;
39970;SDS011;35425;51.142;17.178;2022-11-18T15:02:13;2.40;;;1.90;;
39970;SDS011;35425;51.142;17.178;2022-11-18T15:04:40;2.03;;;1.90;;
39970;SDS011;35425;51.142;17.178;2022-11-18T15:07:08;1.98;;;1.80;;
39970;SDS011;35425;51.142;17.178;2022-11-18T15:09:44;2.53;;;1.90;;
39970;SDS011;35425;51.142;17.178;2022-11-18T15:12:10;1.65;;;1.55;;
39970;SDS011;35425;51.142;17.178;2022-11-18T15:14:37;2.10;;;1.85;;
39970;SDS011;35425;51.142;17.178;2022-11-18T15:17:03;1.63;;;1.52;;
39970;SDS011;35425;51.142;17.178;2022-11-18T15:19:30;2.03;;;1.75;;
39970;SDS011;35425;51.142;17.178;2022-11-18T15:21:57;2.55;;;2.03;;
39970;SDS011;35425;51.142;17.178;2022-11-18T15:24:23;3.22;;;2.13;;
39970;SDS011;35425;51.142;17.178;2022-11-18T15:26:50;2.15;;;1.75;;
39970;SDS011;35425;51.142;17.178;2022-11-18T15:29:17;1.98;;;1.80;;
39970;SDS011;35425;51.142;17.178;2022-11-18T15:31:45;1.60;;;1.50;;
39970;SDS011;35425;51.142;17.178;2022-11-18T15:34:11;1.63;;;1.52;;
39970;SDS011;35425;51.142;17.178;2022-11-18T15:36:38;2.67;;;1.90;;
39970;SDS011;35425;51.142;17.178;2022-11-18T15:39:04;1.60;;;1.50;;
39970;SDS011;35425;51.142;17.178;2022-11-18T15:41:31;2.95;;;1.98;;
39970;SDS011;35425;51.142;17.178;2022-11-18T15:43:58;1.63;;;1.52;;
39970;SDS011;35425;51.142;17.178;2022-11-18T15:46:25;2.05;;;1.85;;
39970;SDS011;35425;51.142;17.178;2022-11-18T15:48:53;2.13;;;1.75;;
39970;SDS011;35425;51.142;17.178;2022-11-18T15:51:19;2.10;;;1.90;;
39970;SDS011;35425;51.142;17.178;2022-11-18T15:53:46;2.95;;;1.50;;
39970;SDS011;35425;51.142;17.178;2022-11-18T16:01:11;2.15;;;1.75;;
39970;SDS011;35425;51.142;17.178;2022-11-18T16:03:38;2.25;;;2.05;;
39970;SDS011;35425;51.142;17.178;2022-11-18T16:06:04;1.95;;;1.52;;
39970;SDS011;35425;51.142;17.178;2022-11-18T16:08:31;2.58;;;2.20;;
39970;SDS011;35425;51.142;17.178;2022-11-18T16:10:57;2.45;;;2.25;;
39970;SDS011;35425;51.142;17.178;2022-11-18T16:13:43;2.38;;;2.17;;
39970;SDS011;35425;51.142;17.178;2022-11-18T16:16:17;3.20;;;2.45;;
39970;SDS011;35425;51.142;17.178;2022-11-18T16:18:43;2.47;;;2.08;;
39970;SDS011;35425;51.142;17.178;2022-11-18T16:21:10;3.25;;;2.75;;
39970;SDS011;35425;51.142;17.178;2022-11-18T16:23:36;3.30;;;2.53;;
39970;SDS011;35425;51.142;17.178;2022-11-18T16:26:02;2.45;;;2.22;;
39970;SDS011;35425;51.142;17.178;2022-11-18T16:28:29;2.50;;;2.25;;
39970;SDS011;35425;51.142;17.178;2022-11-18T16:30:55;2.92;;;2.63;;
39970;SDS011;35425;51.142;17.178;2022-11-18T16:33:40;3.45;;;2.90;;
39970;SDS011;35425;51.142;17.178;2022-11-18T16:36:07;3.58;;;2.95;;
39970;SDS011;35425;51.142;17.178;2022-11-18T16:38:33;4.95;;;3.50;;
39970;SDS011;35425;51.142;17.178;2022-11-18T16:41:00;4.70;;;3.47;;
39970;SDS011;35425;51.142;17.178;2022-11-18T16:43:26;4.22;;;3.55;;
39970;SDS011;35425;51.142;17.178;2022-11-18T16:45:53;4.63;;;3.30;;
39970;SDS011;35425;51.142;17.178;2022-11-18T16:48:20;4.18;;;3.55;;
39970;SDS011;35425;51.142;17.178;2022-11-18T16:51:30;4.82;;;4.15;;
39970;SDS011;35425;51.142;17.178;2022-11-18T16:53:36;4.95;;;4.15;;